Time;durP1;ratioP1;P1;durP2;ratioP2;P2;SDS_P1;SDS_P2;PMS_P1;PMS_P2;Temp;Humidity;BMP_temperature;BMP_pressure;BME280_temperature;BME280_humidity;BME280_pressure;Samples;Min_cycle;Max_cycle;Signal;HPM_P1;HPM_P2
2023/01/22 00:01:16;;;;;;;35.95;22.35;;;-2.60;99.90;;;;;;4998989;28;20381;-80
2023/01/22 00:03:45;;;;;;;39.90;23.30;;;-2.60;99.90;;;;;;4999734;28;20038;-79
2023/01/22 00:06:12;;;;;;;38.45;22.65;;;-2.60;99.90;;;;;;4998387;28;20050;-78
2023/01/22 00:08:39;;;;;;;39.42;22.52;;;-2.70;99.90;;;;;;4995123;28;20042;-78
2023/01/22 00:11:06;;;;;;;38.35;21.95;;;-2.70;99.90;;;;;;4996557;28;20048;-78
2023/01/22 00:13:33;;;;;;;37.97;20.67;;;-2.70;99.90;;;;;;4995912;28;20469;-78
2023/01/22 00:16:00;;;;;;;34.10;20.45;;;-2.70;99.90;;;;;;4994537;28;20053;-79
2023/01/22 00:18:27;;;;;;;30.52;18.70;;;-2.70;99.90;;;;;;4995964;28;20065;-78
2023/01/22 00:20:53;;;;;;;30.48;19.35;;;-2.80;99.90;;;;;;4979661;28;20042;-78
2023/01/22 00:23:20;;;;;;;30.58;18.30;;;-2.80;99.90;;;;;;4995603;28;20039;-78
2023/01/22 00:25:47;;;;;;;31.90;19.10;;;-2.80;99.90;;;;;;4979354;28;20412;-78
2023/01/22 00:28:14;;;;;;;27.30;18.50;;;-2.90;99.90;;;;;;4996896;28;20046;-78
2023/01/22 00:30:41;;;;;;;32.75;20.23;;;-2.90;99.90;;;;;;4994874;28;20145;-78
2023/01/22 00:33:07;;;;;;;34.65;18.52;;;-2.90;99.90;;;;;;4996370;28;20465;-78
2023/01/22 00:35:34;;;;;;;28.58;17.98;;;-2.90;99.90;;;;;;4995138;28;20358;-78
2023/01/22 00:38:01;;;;;;;30.80;19.40;;;-2.90;99.90;;;;;;4995371;28;20042;-78
2023/01/22 00:40:28;;;;;;;35.85;21.25;;;-3.00;99.90;;;;;;4996294;28;20078;-78
2023/01/22 00:42:54;;;;;;;32.60;18.67;;;-3.00;99.90;;;;;;4994317;28;20053;-78
2023/01/22 00:45:21;;;;;;;37.10;22.75;;;-3.00;99.90;;;;;;4995195;28;20125;-78
2023/01/22 00:47:48;;;;;;;36.83;21.35;;;-3.00;99.90;;;;;;4995201;28;20042;-78
2023/01/22 00:50:15;;;;;;;39.53;22.30;;;-3.00;99.90;;;;;;4994238;28;20050;-78
2023/01/22 00:52:43;;;;;;;37.72;20.65;;;-3.00;99.90;;;;;;4994831;28;20054;-78
2023/01/22 00:55:10;;;;;;;34.55;23.52;;;-2.90;99.90;;;;;;4994810;28;20056;-78
2023/01/22 00:57:37;;;;;;;33.95;22.00;;;-2.90;99.90;;;;;;4992867;28;20065;-78
2023/01/22 01:00:03;;;;;;;37.20;22.05;;;-2.90;99.90;;;;;;4995348;28;20056;-78
2023/01/22 01:02:30;;;;;;;38.17;22.38;;;-2.90;99.90;;;;;;4994934;28;20056;-78
2023/01/22 01:04:57;;;;;;;30.05;20.58;;;-2.90;99.90;;;;;;4994604;28;20062;-78
2023/01/22 01:07:23;;;;;;;36.75;21.90;;;-3.00;99.90;;;;;;4978926;28;20050;-78
2023/01/22 01:09:50;;;;;;;30.55;19.35;;;-3.00;99.90;;;;;;4993687;28;20060;-78
2023/01/22 01:12:18;;;;;;;33.88;18.70;;;-3.00;99.90;;;;;;4978810;28;20489;-80
2023/01/22 01:14:45;;;;;;;30.40;20.52;;;-3.00;99.90;;;;;;4994414;28;20048;-78
2023/01/22 01:17:11;;;;;;;31.55;20.90;;;-3.10;99.90;;;;;;4993737;28;20499;-78
2023/01/22 01:19:38;;;;;;;31.23;19.50;;;-3.20;99.90;;;;;;4995716;28;20039;-78
2023/01/22 01:22:06;;;;;;;29.88;18.40;;;-3.20;99.90;;;;;;4992455;28;20046;-78
2023/01/22 01:24:35;;;;;;;36.80;22.00;;;-3.20;99.90;;;;;;4993539;28;20047;-78
2023/01/22 01:27:02;;;;;;;39.55;21.08;;;-3.20;99.90;;;;;;4995673;28;20460;-78
2023/01/22 01:29:28;;;;;;;34.78;20.00;;;-3.20;99.90;;;;;;4993696;28;20062;-78
2023/01/22 01:31:56;;;;;;;37.08;22.30;;;-3.30;99.90;;;;;;4978369;28;20034;-78
2023/01/22 01:34:23;;;;;;;35.13;22.42;;;-3.30;99.90;;;;;;4994144;28;20064;-78
2023/01/22 01:36:50;;;;;;;36.30;22.10;;;-3.30;99.90;;;;;;4993660;28;20050;-78
2023/01/22 01:39:17;;;;;;;35.35;22.35;;;-3.20;99.90;;;;;;4994448;28;20062;-78
2023/01/22 01:41:45;;;;;;;39.97;21.40;;;-3.30;99.90;;;;;;4994226;28;20413;-78
2023/01/22 01:44:12;;;;;;;37.50;22.25;;;-3.30;99.90;;;;;;4992901;28;20039;-78
2023/01/22 01:46:39;;;;;;;38.92;22.75;;;-3.30;99.90;;;;;;4994195;28;20046;-78
2023/01/22 01:49:05;;;;;;;41.28;23.27;;;-3.30;99.90;;;;;;4993045;28;20085;-78
2023/01/22 01:51:33;;;;;;;40.22;22.48;;;-3.30;99.90;;;;;;4976548;28;20050;-78
2023/01/22 01:53:59;;;;;;;36.30;21.58;;;-3.30;99.90;;;;;;4991399;28;20085;-78
2023/01/22 01:56:26;;;;;;;37.22;22.40;;;-3.30;99.90;;;;;;4991940;28;20062;-78
2023/01/22 01:58:53;;;;;;;35.13;22.00;;;-3.30;99.90;;;;;;4994246;28;20042;-78
2023/01/22 02:01:19;;;;;;;33.55;20.20;;;-3.30;99.90;;;;;;4978032;28;20061;-78
2023/01/22 02:03:46;;;;;;;37.17;22.70;;;-3.30;99.90;;;;;;4977070;28;20042;-78
2023/01/22 02:06:13;;;;;;;32.58;21.35;;;-3.30;99.90;;;;;;4993649;28;20393;-78
2023/01/22 02:08:39;;;;;;;37.47;21.23;;;-3.30;99.90;;;;;;4994136;28;20057;-78
2023/01/22 02:11:06;;;;;;;34.63;21.92;;;-3.30;99.90;;;;;;4994119;28;20065;-78
2023/01/22 02:13:32;;;;;;;32.88;20.00;;;-3.40;99.90;;;;;;4993855;28;20053;-78
2023/01/22 02:15:59;;;;;;;36.53;20.80;;;-3.40;99.90;;;;;;4992461;28;20488;-78
2023/01/22 02:18:26;;;;;;;34.00;20.05;;;-3.40;99.90;;;;;;4994133;28;20050;-78
2023/01/22 02:20:53;;;;;;;35.55;22.67;;;-3.30;99.90;;;;;;4994072;28;20046;-79
2023/01/22 02:23:19;;;;;;;33.25;20.70;;;-3.30;99.90;;;;;;4992965;28;20480;-79
2023/01/22 02:25:46;;;;;;;32.40;20.73;;;-3.30;99.90;;;;;;4993865;28;20426;-79
2023/01/22 02:28:13;;;;;;;33.00;21.30;;;-3.30;99.90;;;;;;4994055;28;20112;-79
2023/01/22 02:30:40;;;;;;;35.78;19.67;;;-3.40;99.90;;;;;;4992938;28;20505;-78
2023/01/22 02:33:06;;;;;;;31.52;18.90;;;-3.40;99.90;;;;;;4994066;28;20046;-79
2023/01/22 02:35:33;;;;;;;28.83;20.98;;;-3.40;99.90;;;;;;4996428;28;20435;-79
2023/01/22 02:38:01;;;;;;;32.35;20.45;;;-3.50;99.90;;;;;;4981844;28;20141;-78
2023/01/22 02:40:28;;;;;;;30.83;19.80;;;-3.40;99.90;;;;;;4997873;28;20047;-78
2023/01/22 02:42:57;;;;;;;37.30;22.25;;;-3.40;99.90;;;;;;4980403;28;20034;-79
2023/01/22 02:45:24;;;;;;;30.15;19.02;;;-3.40;99.90;;;;;;4997517;28;20086;-78
2023/01/22 02:47:51;;;;;;;33.38;19.25;;;-3.50;99.90;;;;;;4997611;28;20053;-78
2023/01/22 02:50:17;;;;;;;33.75;20.88;;;-3.60;99.90;;;;;;4996200;28;20098;-79
2023/01/22 02:52:44;;;;;;;34.53;22.23;;;-3.60;99.90;;;;;;4997600;28;20486;-79
2023/01/22 02:55:11;;;;;;;33.47;20.25;;;-3.50;99.90;;;;;;4997043;28;20042;-78
2023/01/22 02:57:39;;;;;;;32.70;21.63;;;-3.60;99.90;;;;;;4981189;28;20129;-79
2023/01/22 03:00:05;;;;;;;27.73;18.52;;;-3.60;99.90;;;;;;4997527;28;20038;-79
2023/01/22 03:02:32;;;;;;;34.45;19.58;;;-3.60;99.90;;;;;;4996318;28;20465;-79
2023/01/22 03:05:02;;;;;;;35.95;20.02;;;-3.70;99.90;;;;;;4996979;28;20489;-79
2023/01/22 03:07:40;;;;;;;30.65;20.00;;;-3.70;99.90;;;;;;4981384;28;20039;-79
2023/01/22 03:10:07;;;;;;;28.23;18.27;;;-3.60;99.90;;;;;;4996097;28;20042;-79
2023/01/22 03:23:37;;;;;;;28.50;17.98;;;-3.70;99.90;;;;;;4995876;28;20046;-78
2023/01/22 03:26:04;;;;;;;28.55;16.58;;;-3.70;99.90;;;;;;4980358;28;20035;-78
2023/01/22 03:28:31;;;;;;;26.67;16.52;;;-3.70;99.90;;;;;;4996870;28;20074;-78
2023/01/22 03:30:58;;;;;;;29.63;17.92;;;-3.70;99.90;;;;;;4979850;28;20104;-79
2023/01/22 03:33:25;;;;;;;30.73;18.80;;;-3.70;99.90;;;;;;4996628;28;20046;-78
2023/01/22 03:35:51;;;;;;;27.33;15.85;;;-3.80;99.90;;;;;;4995337;28;20113;-79
2023/01/22 03:38:19;;;;;;;31.15;17.00;;;-3.80;99.90;;;;;;4996572;28;20481;-79
2023/01/22 03:40:46;;;;;;;31.80;17.10;;;-3.80;99.90;;;;;;4980585;28;20041;-79
2023/01/22 03:43:13;;;;;;;28.88;16.70;;;-3.80;99.90;;;;;;4995307;28;20089;-79
2023/01/22 03:45:39;;;;;;;30.25;18.02;;;-3.80;99.90;;;;;;4995117;28;20053;-78
2023/01/22 03:48:10;;;;;;;30.70;16.67;;;-3.80;99.90;;;;;;4995471;28;20042;-78
2023/01/22 03:50:39;;;;;;;26.67;16.88;;;-3.80;99.90;;;;;;4995218;28;20362;-78
2023/01/22 03:53:05;;;;;;;30.83;19.25;;;-3.80;99.90;;;;;;4980221;28;20127;-79
2023/01/22 03:55:32;;;;;;;30.25;18.95;;;-3.80;99.90;;;;;;4994771;28;20137;-78
2023/01/22 03:57:59;;;;;;;29.48;18.48;;;-3.80;99.90;;;;;;4996225;28;20376;-79
2023/01/22 04:00:25;;;;;;;27.48;17.02;;;-3.80;99.90;;;;;;4980135;28;20066;-79
2023/01/22 04:02:53;;;;;;;25.42;17.02;;;-3.90;99.90;;;;;;4979055;28;20389;-78
2023/01/22 04:05:25;;;;;;;35.35;17.92;;;-3.90;99.90;;;;;;4995830;28;20133;-78
2023/01/22 04:07:52;;;;;;;27.88;16.50;;;-4.00;99.90;;;;;;4996161;28;20050;-78
2023/01/22 04:10:23;;;;;;;24.67;15.82;;;-3.90;99.90;;;;;;4994912;28;20396;-79
2023/01/22 04:12:49;;;;;;;30.65;17.75;;;-3.90;99.90;;;;;;4995862;28;20050;-79
2023/01/22 04:15:19;;;;;;;26.45;16.80;;;-3.90;99.90;;;;;;4994491;28;20229;-79
2023/01/22 04:17:48;;;;;;;26.92;17.40;;;-4.00;99.90;;;;;;4995976;28;20038;-79
2023/01/22 04:20:37;;;;;;;27.52;16.88;;;-4.00;99.90;;;;;;4977880;28;20042;-79
2023/01/22 04:23:18;;;;;;;31.58;17.92;;;-3.90;99.90;;;;;;4980632;28;20104;-79
2023/01/22 04:25:45;;;;;;;24.05;15.05;;;-3.90;99.90;;;;;;4979464;28;20054;-79
2023/01/22 04:28:13;;;;;;;23.50;15.45;;;-3.90;99.90;;;;;;4995969;28;20106;-79
2023/01/22 04:30:41;;;;;;;28.63;17.42;;;-3.90;99.90;;;;;;4994667;28;20084;-78
2023/01/22 04:33:27;;;;;;;26.70;17.65;;;-3.90;99.90;;;;;;4995698;28;20112;-78
2023/01/22 04:36:03;;;;;;;25.15;16.50;;;-4.00;99.90;;;;;;4994035;28;20077;-78
2023/01/22 04:38:30;;;;;;;29.33;16.35;;;-4.00;99.90;;;;;;4995577;28;20145;-79
2023/01/22 04:40:57;;;;;;;28.50;17.80;;;-4.10;99.90;;;;;;4979333;28;20528;-79
2023/01/22 04:43:24;;;;;;;28.90;16.45;;;-4.10;99.90;;;;;;4994218;28;20061;-78
2023/01/22 04:45:51;;;;;;;29.20;16.60;;;-4.20;99.90;;;;;;4994987;28;20137;-78
2023/01/22 04:48:20;;;;;;;27.10;17.00;;;-4.20;99.90;;;;;;4994977;28;20046;-79
2023/01/22 04:50:47;;;;;;;28.00;15.93;;;-4.10;99.90;;;;;;4977937;28;20137;-78
2023/01/22 04:53:13;;;;;;;26.50;15.23;;;-4.10;99.90;;;;;;4978448;28;20054;-79
2023/01/22 04:55:41;;;;;;;30.02;16.65;;;-4.10;99.90;;;;;;4993053;28;20042;-78
2023/01/22 04:58:08;;;;;;;29.13;16.42;;;-4.10;99.90;;;;;;4994316;28;20125;-79
2023/01/22 05:00:35;;;;;;;29.80;15.45;;;-4.10;99.90;;;;;;4978903;28;20161;-79
2023/01/22 05:03:02;;;;;;;32.17;17.92;;;-4.10;99.90;;;;;;4993795;28;20053;-79
2023/01/22 05:05:29;;;;;;;27.77;15.23;;;-4.10;99.90;;;;;;4993845;28;20097;-78
2023/01/22 05:07:56;;;;;;;28.17;16.27;;;-4.10;99.90;;;;;;4995897;28;20458;-79
2023/01/22 05:10:23;;;;;;;29.88;16.42;;;-4.10;99.90;;;;;;4976944;28;20049;-78
2023/01/22 05:12:50;;;;;;;30.17;17.63;;;-4.20;99.90;;;;;;4994198;28;20108;-78
2023/01/22 05:15:17;;;;;;;30.30;17.58;;;-4.20;99.90;;;;;;4992230;28;20428;-79
2023/01/22 05:17:52;;;;;;;34.83;18.83;;;-4.20;99.90;;;;;;4994825;28;20050;-79
2023/01/22 05:20:19;;;;;;;27.38;15.35;;;-4.10;99.90;;;;;;4994749;28;20125;-79
2023/01/22 05:22:46;;;;;;;27.52;16.27;;;-4.00;99.90;;;;;;4993653;28;20046;-79
2023/01/22 05:25:14;;;;;;;28.23;16.45;;;-4.00;99.90;;;;;;4994400;28;20053;-79
2023/01/22 05:27:41;;;;;;;27.30;15.05;;;-4.00;99.90;;;;;;4994563;28;20047;-79
2023/01/22 05:30:14;;;;;;;27.58;16.58;;;-4.00;99.90;;;;;;4978332;28;20500;-78
2023/01/22 05:32:58;;;;;;;26.10;15.32;;;-3.90;99.90;;;;;;4994554;28;20384;-79
2023/01/22 05:35:26;;;;;;;26.95;15.20;;;-3.90;99.90;;;;;;4993264;28;20043;-78
2023/01/22 05:37:52;;;;;;;29.20;16.65;;;-4.00;99.90;;;;;;4978175;28;20038;-79
2023/01/22 05:40:21;;;;;;;46.88;17.40;;;-3.90;99.90;;;;;;4994445;28;20137;-79
2023/01/22 05:42:49;;;;;;;25.92;15.10;;;-3.90;99.90;;;;;;4993367;28;20092;-79
2023/01/22 05:45:15;;;;;;;26.35;14.85;;;-3.90;99.90;;;;;;4994106;28;20047;-79
2023/01/22 05:48:05;;;;;;;27.13;14.90;;;-3.90;99.90;;;;;;4994152;28;20046;-79
2023/01/22 05:50:55;;;;;;;34.65;17.92;;;-3.90;99.90;;;;;;5005945;28;20046;-79
2023/01/22 05:53:22;;;;;;;24.98;14.90;;;-4.00;99.90;;;;;;5013846;28;20104;-79
2023/01/22 05:55:49;;;;;;;24.08;14.43;;;-4.00;99.90;;;;;;5012386;28;20121;-79
2023/01/22 05:58:15;;;;;;;30.35;15.80;;;-4.00;99.90;;;;;;5014078;28;20045;-79
2023/01/22 06:00:45;;;;;;;27.23;15.48;;;-4.10;99.90;;;;;;5013784;28;20034;-79
2023/01/22 06:03:14;;;;;;;27.63;16.80;;;-4.00;99.90;;;;;;5012841;28;20072;-79
2023/01/22 06:05:46;;;;;;;28.58;15.93;;;-4.10;99.90;;;;;;4998186;28;20037;-79
2023/01/22 06:08:13;;;;;;;25.42;15.13;;;-4.10;99.90;;;;;;5013337;28;20042;-79
2023/01/22 06:10:48;;;;;;;24.85;14.27;;;-4.20;99.90;;;;;;4997846;28;20428;-78
2023/01/22 06:13:17;;;;;;;26.67;14.35;;;-4.20;99.90;;;;;;4997613;28;20046;-78
2023/01/22 06:15:46;;;;;;;27.35;16.83;;;-4.20;99.90;;;;;;5012129;28;20046;-78
2023/01/22 06:18:28;;;;;;;30.73;15.07;;;-4.30;99.90;;;;;;5013789;28;20069;-79
2023/01/22 06:20:55;;;;;;;26.77;15.32;;;-4.30;99.90;;;;;;5013729;28;20108;-79
2023/01/22 06:23:24;;;;;;;28.73;16.42;;;-4.30;99.90;;;;;;4996423;28;20052;-79
2023/01/22 06:25:51;;;;;;;29.80;15.95;;;-4.30;99.90;;;;;;5013150;28;20104;-78
2023/01/22 06:28:18;;;;;;;27.52;15.73;;;-4.40;99.90;;;;;;4997397;28;20404;-79
2023/01/22 06:30:45;;;;;;;26.50;14.70;;;-4.40;99.90;;;;;;4996364;28;20038;-78
2023/01/22 06:33:11;;;;;;;28.48;14.73;;;-4.30;99.90;;;;;;5013382;28;20133;-79
2023/01/22 06:35:38;;;;;;;34.67;16.92;;;-4.30;99.90;;;;;;5013325;28;20120;-79
2023/01/22 06:38:05;;;;;;;27.70;15.50;;;-4.30;99.90;;;;;;4997502;28;20128;-78
2023/01/22 06:40:33;;;;;;;25.25;14.52;;;-4.30;99.90;;;;;;5014100;28;20050;-78
2023/01/22 06:43:04;;;;;;;25.65;16.05;;;-4.30;99.90;;;;;;4997183;28;20042;-79
2023/01/22 06:45:31;;;;;;;26.38;15.27;;;-4.30;99.90;;;;;;5013634;28;20094;-79
2023/01/22 06:48:03;;;;;;;26.92;17.40;;;-4.40;99.90;;;;;;5013488;28;20057;-79
2023/01/22 06:50:29;;;;;;;32.30;16.90;;;-4.50;99.90;;;;;;4995844;28;20090;-78
2023/01/22 06:52:56;;;;;;;36.05;16.38;;;-4.50;99.90;;;;;;4993841;28;20053;-79
2023/01/22 06:55:22;;;;;;;26.65;18.05;;;-4.50;99.90;;;;;;4992380;28;20065;-79
2023/01/22 06:57:49;;;;;;;25.88;15.95;;;-4.60;99.90;;;;;;4977693;28;20154;-79
2023/01/22 07:00:16;;;;;;;29.17;17.88;;;-4.60;99.90;;;;;;4993727;28;20100;-79
2023/01/22 07:02:43;;;;;;;26.38;16.05;;;-4.60;99.90;;;;;;4976672;28;20042;-79
2023/01/22 07:05:10;;;;;;;29.63;17.65;;;-4.50;99.90;;;;;;4993472;28;20057;-78
2023/01/22 07:07:37;;;;;;;27.33;16.67;;;-4.50;99.90;;;;;;4993587;28;20042;-78
2023/01/22 07:10:03;;;;;;;27.45;15.30;;;-4.50;99.90;;;;;;4992573;28;20038;-79
2023/01/22 07:12:30;;;;;;;24.42;15.00;;;-4.60;99.90;;;;;;4993581;28;20038;-79
2023/01/22 07:14:57;;;;;;;24.05;15.85;;;-4.60;99.90;;;;;;4993381;28;20057;-79
2023/01/22 07:17:23;;;;;;;25.30;14.85;;;-4.60;99.90;;;;;;4991368;28;20041;-79
2023/01/22 07:19:50;;;;;;;30.27;18.35;;;-4.60;99.90;;;;;;4994635;28;20380;-79
2023/01/22 07:22:16;;;;;;;26.80;16.70;;;-4.60;99.90;;;;;;4995872;28;20046;-78
2023/01/22 07:24:43;;;;;;;30.30;17.02;;;-4.50;99.90;;;;;;4996699;28;20076;-79
2023/01/22 07:27:10;;;;;;;28.70;15.63;;;-4.50;99.90;;;;;;4980912;28;20096;-79
2023/01/22 07:29:36;;;;;;;31.17;16.60;;;-4.50;99.90;;;;;;4979720;28;20046;-79
2023/01/22 07:32:03;;;;;;;33.53;19.13;;;-4.60;99.90;;;;;;4996736;28;20429;-78
2023/01/22 07:34:30;;;;;;;29.08;15.52;;;-4.60;99.90;;;;;;4997354;28;20054;-79
2023/01/22 07:36:56;;;;;;;31.63;18.23;;;-4.60;99.90;;;;;;4995745;28;20042;-79
2023/01/22 07:39:23;;;;;;;29.52;18.42;;;-4.60;99.90;;;;;;4980676;28;20057;-79
2023/01/22 07:41:50;;;;;;;33.28;19.63;;;-4.50;99.90;;;;;;4980427;28;20038;-79
2023/01/22 07:44:17;;;;;;;37.55;19.70;;;-4.50;99.90;;;;;;4995325;28;20038;-78
2023/01/22 07:46:44;;;;;;;33.30;18.55;;;-4.40;99.90;;;;;;4980462;28;20346;-79
2023/01/22 07:49:11;;;;;;;32.30;17.45;;;-4.50;99.90;;;;;;4995275;28;20388;-78
2023/01/22 07:51:37;;;;;;;36.50;18.45;;;-4.50;99.90;;;;;;4996658;28;20049;-79
2023/01/22 07:54:04;;;;;;;37.45;19.65;;;-4.50;99.90;;;;;;4979875;28;20054;-79
2023/01/22 07:56:31;;;;;;;36.13;19.05;;;-4.60;99.90;;;;;;4995420;28;20042;-79
2023/01/22 07:58:57;;;;;;;38.00;19.65;;;-4.60;99.90;;;;;;4996562;28;20042;-79
2023/01/22 08:01:24;;;;;;;35.83;19.73;;;-4.60;99.90;;;;;;4996378;28;20116;-78
2023/01/22 08:03:51;;;;;;;32.25;19.10;;;-4.60;99.90;;;;;;4994552;28;20155;-78
2023/01/22 08:06:19;;;;;;;30.52;16.85;;;-4.50;99.90;;;;;;4996491;28;20106;-80
2023/01/22 08:08:46;;;;;;;29.98;17.65;;;-4.50;99.90;;;;;;4994797;28;20050;-79
2023/01/22 08:11:13;;;;;;;37.65;19.25;;;-4.60;99.90;;;;;;4996089;28;20057;-80
2023/01/22 08:13:40;;;;;;;32.90;18.25;;;-4.60;99.90;;;;;;4995669;28;20057;-79
2023/01/22 08:16:08;;;;;;;33.58;17.23;;;-4.60;99.90;;;;;;4978908;28;20128;-80
2023/01/22 08:18:35;;;;;;;31.42;16.20;;;-4.60;99.90;;;;;;4979768;28;20469;-80
2023/01/22 08:21:01;;;;;;;31.55;16.98;;;-4.50;99.90;;;;;;4980438;28;20053;-80
2023/01/22 08:23:28;;;;;;;36.45;17.80;;;-4.40;99.90;;;;;;4994401;28;20129;-80
2023/01/22 08:25:55;;;;;;;35.38;17.70;;;-4.40;99.90;;;;;;4995011;28;20046;-80
2023/01/22 08:28:21;;;;;;;33.58;17.67;;;-4.40;99.90;;;;;;4992392;28;20054;-79
2023/01/22 08:30:48;;;;;;;28.00;17.20;;;-4.40;99.90;;;;;;4976370;28;20050;-80
2023/01/22 08:33:15;;;;;;;32.92;18.88;;;-4.40;99.90;;;;;;4992393;28;20042;-80
2023/01/22 08:35:42;;;;;;;42.10;19.30;;;-4.30;99.90;;;;;;4977463;28;20440;-80
2023/01/22 08:38:09;;;;;;;34.50;19.23;;;-4.20;99.90;;;;;;4978673;28;20042;-80
2023/01/22 08:40:35;;;;;;;34.13;19.95;;;-4.10;99.90;;;;;;4975684;28;20053;-79
2023/01/22 08:43:03;;;;;;;39.40;20.77;;;-4.00;99.90;;;;;;4974638;28;20493;-80
2023/01/22 08:45:30;;;;;;;34.05;17.75;;;-4.00;99.90;;;;;;4976082;28;20125;-80
2023/01/22 08:47:58;;;;;;;42.63;20.70;;;-3.90;99.90;;;;;;4975264;28;20043;-80
2023/01/22 08:50:25;;;;;;;36.72;18.88;;;-3.80;99.90;;;;;;4975078;28;20105;-80
2023/01/22 08:52:52;;;;;;;37.15;19.25;;;-3.70;99.90;;;;;;4959804;28;20061;-79
2023/01/22 08:55:18;;;;;;;35.88;18.17;;;-3.60;99.90;;;;;;4974633;28;20411;-80
2023/01/22 08:57:45;;;;;;;34.30;17.83;;;-3.50;99.90;;;;;;4960548;28;20050;-81
2023/01/22 09:00:12;;;;;;;35.15;20.23;;;-3.40;99.90;;;;;;4978840;28;20039;-80
2023/01/22 09:02:39;;;;;;;35.13;20.70;;;-3.20;99.90;;;;;;4960496;28;20359;-79
2023/01/22 09:05:05;;;;;;;40.95;20.35;;;-3.10;99.90;;;;;;4978507;28;20043;-80
2023/01/22 09:07:32;;;;;;;35.72;20.38;;;-3.00;99.90;;;;;;4975971;28;20053;-79
2023/01/22 09:09:59;;;;;;;39.63;21.38;;;-3.00;99.90;;;;;;4974976;28;20073;-78
2023/01/22 09:12:25;;;;;;;35.63;20.27;;;-2.90;99.90;;;;;;4975771;28;20046;-79
2023/01/22 09:14:52;;;;;;;38.22;19.80;;;-2.80;99.90;;;;;;4976498;28;20042;-79
2023/01/22 09:17:19;;;;;;;35.47;22.27;;;-2.80;99.90;;;;;;4974706;28;20057;-80
2023/01/22 09:19:45;;;;;;;35.50;21.25;;;-2.70;99.90;;;;;;4977168;28;20035;-80
2023/01/22 09:22:12;;;;;;;40.13;22.42;;;-2.50;99.90;;;;;;4976073;28;20039;-79
2023/01/22 09:24:39;;;;;;;40.50;21.25;;;-2.40;99.90;;;;;;4995499;28;20042;-80
2023/01/22 09:27:07;;;;;;;34.85;20.33;;;-2.30;99.90;;;;;;4994724;28;20061;-80
2023/01/22 09:29:34;;;;;;;33.50;19.52;;;-2.10;99.90;;;;;;4988314;28;20042;-80
2023/01/22 09:32:01;;;;;;;38.05;22.13;;;-2.00;99.90;;;;;;4990442;28;20072;-80
2023/01/22 09:34:29;;;;;;;36.15;19.33;;;-1.90;99.90;;;;;;4978071;28;20042;-80
2023/01/22 09:36:55;;;;;;;28.88;17.98;;;-1.80;99.90;;;;;;4994489;28;20049;-79
2023/01/22 09:39:22;;;;;;;31.20;17.17;;;-1.70;99.90;;;;;;4813220;28;27924;-79
2023/01/22 09:41:49;;;;;;;31.95;19.48;;;-1.60;99.90;;;;;;4971558;28;20038;-80
2023/01/22 09:44:16;;;;;;;26.63;16.58;;;-1.40;99.90;;;;;;4956201;28;20457;-78
2023/01/22 09:46:43;;;;;;;29.17;19.13;;;-1.40;99.90;;;;;;4973813;28;20043;-78
2023/01/22 09:49:10;;;;;;;30.02;17.35;;;-1.30;99.90;;;;;;4985994;28;20050;-79
2023/01/22 09:51:36;;;;;;;26.75;17.27;;;-1.20;99.90;;;;;;5019956;28;20065;-80
2023/01/22 09:54:03;;;;;;;29.17;15.05;;;-1.10;99.90;;;;;;5015327;28;20083;-79
2023/01/22 09:56:30;;;;;;;23.80;16.35;;;-1.00;99.90;;;;;;5030199;28;20452;-79
2023/01/22 09:58:57;;;;;;;28.92;16.95;;;-0.80;99.90;;;;;;5033683;28;20498;-80
2023/01/22 10:01:23;;;;;;;30.48;18.13;;;-0.70;99.90;;;;;;5031913;28;20054;-80
2023/01/22 10:03:50;;;;;;;25.73;16.10;;;-0.50;99.90;;;;;;4997905;28;20372;-80
2023/01/22 10:06:20;;;;;;;34.70;19.25;;;-0.30;99.90;;;;;;5034351;28;20041;-80
2023/01/22 10:08:46;;;;;;;25.77;15.68;;;-0.10;99.90;;;;;;5021647;28;20049;-80
2023/01/22 10:11:13;;;;;;;25.95;17.67;;;0.10;99.90;;;;;;5016356;28;20046;-81
2023/01/22 10:13:40;;;;;;;30.05;19.25;;;0.30;99.90;;;;;;5015556;28;20052;-81
2023/01/22 10:16:06;;;;;;;28.85;18.48;;;0.60;99.90;;;;;;5016122;28;20384;-81
2023/01/22 10:18:33;;;;;;;30.52;20.02;;;0.80;99.90;;;;;;5034295;28;20037;-81
2023/01/22 10:21:00;;;;;;;28.98;20.60;;;1.10;99.90;;;;;;5022384;28;20041;-80
2023/01/22 10:23:26;;;;;;;29.58;20.17;;;1.30;99.90;;;;;;5026528;28;20041;-79
2023/01/22 10:25:53;;;;;;;28.15;21.75;;;1.40;99.90;;;;;;5022763;28;20248;-80
2023/01/22 10:28:20;;;;;;;31.02;21.10;;;1.60;99.90;;;;;;5008390;28;20080;-79
2023/01/22 10:30:47;;;;;;;32.85;21.42;;;1.80;99.90;;;;;;5012550;28;20045;-80
2023/01/22 10:33:13;;;;;;;32.47;22.55;;;2.00;99.90;;;;;;5026677;28;20104;-79
2023/01/22 10:35:40;;;;;;;32.33;20.92;;;2.20;99.90;;;;;;5030413;28;20045;-80
2023/01/22 10:38:07;;;;;;;27.02;18.95;;;2.40;99.90;;;;;;5033744;28;20048;-80
2023/01/22 10:40:33;;;;;;;32.60;21.77;;;2.60;99.90;;;;;;5014307;28;20270;-79
2023/01/22 10:43:00;;;;;;;30.45;21.42;;;2.80;99.90;;;;;;5009864;28;20116;-80
2023/01/22 10:45:26;;;;;;;34.95;23.67;;;3.10;99.90;;;;;;5025157;28;20060;-80
2023/01/22 10:47:53;;;;;;;30.70;22.20;;;3.20;99.90;;;;;;4994044;28;20056;-80
2023/01/22 10:50:20;;;;;;;30.58;24.73;;;3.30;99.90;;;;;;4997314;28;20080;-81
2023/01/22 10:52:47;;;;;;;34.13;25.50;;;3.50;99.90;;;;;;4994412;28;20050;-79
2023/01/22 10:55:14;;;;;;;33.20;25.33;;;3.80;99.90;;;;;;4979743;28;20421;-81
2023/01/22 10:57:40;;;;;;;41.40;28.92;;;4.00;99.90;;;;;;4983458;28;20038;-81
2023/01/22 11:00:08;;;;;;;39.47;28.88;;;4.30;99.90;;;;;;4979040;28;20054;-81
2023/01/22 11:02:35;;;;;;;35.28;27.05;;;4.60;99.90;;;;;;4978031;28;20053;-81
2023/01/22 11:05:02;;;;;;;40.30;28.90;;;4.70;99.90;;;;;;4979161;28;20437;-81
2023/01/22 11:07:28;;;;;;;38.22;29.05;;;4.80;99.90;;;;;;4961814;28;20054;-81
2023/01/22 11:09:58;;;;;;;47.22;30.73;;;4.90;99.90;;;;;;4977889;28;20117;-82
2023/01/22 11:12:25;;;;;;;36.58;28.17;;;5.00;99.90;;;;;;4994200;28;20492;-81
2023/01/22 11:14:51;;;;;;;42.05;28.88;;;5.20;99.90;;;;;;4994296;28;20149;-81
2023/01/22 11:17:18;;;;;;;35.35;28.10;;;5.30;99.90;;;;;;4977195;28;20382;-81
2023/01/22 11:19:45;;;;;;;31.92;25.35;;;5.40;99.90;;;;;;4993769;28;20035;-80
2023/01/22 11:22:11;;;;;;;33.88;25.27;;;5.60;99.90;;;;;;4960664;28;20137;-80
2023/01/22 11:24:39;;;;;;;36.22;25.80;;;5.60;99.90;;;;;;4977687;28;20042;-81
2023/01/22 11:27:06;;;;;;;35.90;26.75;;;5.60;99.90;;;;;;4993468;28;20043;-80
2023/01/22 11:29:33;;;;;;;33.95;25.13;;;5.60;99.90;;;;;;4992810;28;20355;-80
2023/01/22 11:31:59;;;;;;;34.75;25.35;;;5.80;99.90;;;;;;4978457;28;20064;-81
2023/01/22 11:34:26;;;;;;;40.63;27.98;;;6.10;99.90;;;;;;4993659;28;20043;-83
2023/01/22 11:36:53;;;;;;;34.17;25.90;;;6.30;99.90;;;;;;4967923;28;20034;-82
2023/01/22 11:39:19;;;;;;;37.60;27.55;;;6.40;99.90;;;;;;5001818;28;20043;-81
2023/01/22 11:41:46;;;;;;;42.03;29.40;;;6.80;99.90;;;;;;4989912;28;20042;-80
2023/01/22 11:44:13;;;;;;;36.22;27.58;;;7.00;99.90;;;;;;4995220;28;20050;-80
2023/01/22 11:46:39;;;;;;;33.72;27.20;;;7.20;99.90;;;;;;4997433;28;20056;-78
2023/01/22 11:49:06;;;;;;;35.10;27.00;;;7.30;99.90;;;;;;4995408;28;20457;-81
2023/01/22 11:51:33;;;;;;;34.67;27.63;;;7.50;99.90;;;;;;4997217;28;20472;-81
2023/01/22 11:54:00;;;;;;;38.03;28.08;;;7.20;99.90;;;;;;4997346;28;20042;-79
2023/01/22 11:56:26;;;;;;;38.70;28.05;;;6.40;99.90;;;;;;4996220;28;20042;-80
2023/01/22 11:58:53;;;;;;;37.78;27.45;;;5.80;99.90;;;;;;4996657;28;20113;-80
2023/01/22 12:01:20;;;;;;;34.83;26.23;;;5.40;99.90;;;;;;4987587;28;20130;-80
2023/01/22 12:03:46;;;;;;;37.67;27.40;;;5.00;99.90;;;;;;4993476;28;20350;-79
2023/01/22 12:06:13;;;;;;;38.30;25.10;;;4.70;99.90;;;;;;4995151;28;20058;-80
2023/01/22 12:08:39;;;;;;;34.40;23.02;;;4.50;99.90;;;;;;4989798;28;20438;-77
2023/01/22 12:11:06;;;;;;;37.10;25.35;;;4.30;99.90;;;;;;4995261;28;20042;-80
2023/01/22 12:13:33;;;;;;;27.73;19.55;;;4.20;99.90;;;;;;4995450;28;20042;-79
2023/01/22 12:15:59;;;;;;;26.23;19.63;;;4.10;99.90;;;;;;4994556;28;20359;-77
2023/01/22 12:18:26;;;;;;;25.23;18.58;;;3.90;99.90;;;;;;4996781;28;20461;-78
2023/01/22 12:20:53;;;;;;;26.48;18.80;;;3.90;99.90;;;;;;4993385;28;20054;-81
2023/01/22 12:23:19;;;;;;;27.40;18.75;;;3.90;99.90;;;;;;4994019;28;20096;-77
2023/01/22 12:25:46;;;;;;;26.85;17.92;;;3.90;99.90;;;;;;4995550;28;20129;-78
2023/01/22 12:28:12;;;;;;;26.10;19.10;;;3.90;99.90;;;;;;4996873;28;20047;-83
2023/01/22 12:30:39;;;;;;;25.80;18.48;;;4.00;99.90;;;;;;4994904;28;20541;-79
2023/01/22 12:33:06;;;;;;;26.83;18.73;;;3.90;99.90;;;;;;4996704;28;20042;-78
2023/01/22 12:35:33;;;;;;;24.77;17.67;;;3.90;99.90;;;;;;4994057;28;20043;-80
2023/01/22 12:38:00;;;;;;;25.05;17.63;;;3.90;99.90;;;;;;4994821;28;20093;-78
2023/01/22 12:40:26;;;;;;;25.15;16.52;;;4.00;99.90;;;;;;4995542;28;20043;-78